sensor_id;sensor_type;location;lat;lon;timestamp;P1;durP1;ratioP1;P2;durP2;ratioP2
32826;SDS011;51059;42.058;27.986;2022-12-16T00:01:54;62.80;;;26.57;;
32826;SDS011;51059;42.058;27.986;2022-12-16T00:04:20;51.47;;;25.23;;
32826;SDS011;51059;42.058;27.986;2022-12-16T00:06:45;55.80;;;26.30;;
32826;SDS011;51059;42.058;27.986;2022-12-16T00:09:11;56.67;;;26.73;;
32826;SDS011;51059;42.058;27.986;2022-12-16T00:11:36;48.13;;;25.97;;
32826;SDS011;51059;42.058;27.986;2022-12-16T00:14:02;52.47;;;25.77;;
32826;SDS011;51059;42.058;27.986;2022-12-16T00:16:28;63.80;;;28.43;;
32826;SDS011;51059;42.058;27.986;2022-12-16T00:18:54;56.50;;;27.20;;
32826;SDS011;51059;42.058;27.986;2022-12-16T00:21:20;54.47;;;26.43;;
32826;SDS011;51059;42.058;27.986;2022-12-16T00:23:45;55.47;;;27.03;;
32826;SDS011;51059;42.058;27.986;2022-12-16T00:26:12;49.40;;;26.43;;
32826;SDS011;51059;42.058;27.986;2022-12-16T00:28:38;55.07;;;25.73;;
32826;SDS011;51059;42.058;27.986;2022-12-16T00:31:04;52.07;;;26.20;;
32826;SDS011;51059;42.058;27.986;2022-12-16T00:33:30;54.40;;;25.00;;
32826;SDS011;51059;42.058;27.986;2022-12-16T00:35:55;57.53;;;25.60;;
32826;SDS011;51059;42.058;27.986;2022-12-16T00:38:22;46.90;;;24.23;;
32826;SDS011;51059;42.058;27.986;2022-12-16T00:40:48;45.90;;;24.70;;
32826;SDS011;51059;42.058;27.986;2022-12-16T00:43:14;46.53;;;24.60;;
32826;SDS011;51059;42.058;27.986;2022-12-16T00:45:39;47.17;;;24.33;;
32826;SDS011;51059;42.058;27.986;2022-12-16T00:48:05;54.70;;;25.53;;
32826;SDS011;51059;42.058;27.986;2022-12-16T00:50:32;48.10;;;23.50;;
32826;SDS011;51059;42.058;27.986;2022-12-16T00:52:58;40.07;;;22.43;;
32826;SDS011;51059;42.058;27.986;2022-12-16T00:55:24;47.00;;;23.40;;
32826;SDS011;51059;42.058;27.986;2022-12-16T00:57:49;45.67;;;23.53;;
32826;SDS011;51059;42.058;27.986;2022-12-16T01:00:16;43.07;;;23.20;;
32826;SDS011;51059;42.058;27.986;2022-12-16T01:02:43;46.33;;;22.77;;
32826;SDS011;51059;42.058;27.986;2022-12-16T01:05:10;49.70;;;24.33;;
32826;SDS011;51059;42.058;27.986;2022-12-16T01:07:37;39.47;;;24.07;;
32826;SDS011;51059;42.058;27.986;2022-12-16T01:10:03;46.73;;;22.10;;
32826;SDS011;51059;42.058;27.986;2022-12-16T01:12:30;42.17;;;22.30;;
32826;SDS011;51059;42.058;27.986;2022-12-16T01:14:56;39.93;;;21.77;;
32826;SDS011;51059;42.058;27.986;2022-12-16T01:17:22;32.60;;;20.53;;
32826;SDS011;51059;42.058;27.986;2022-12-16T01:19:50;35.03;;;21.07;;
32826;SDS011;51059;42.058;27.986;2022-12-16T01:22:16;38.70;;;20.60;;
32826;SDS011;51059;42.058;27.986;2022-12-16T01:24:42;33.77;;;19.57;;
32826;SDS011;51059;42.058;27.986;2022-12-16T01:27:08;33.57;;;20.23;;
32826;SDS011;51059;42.058;27.986;2022-12-16T01:29:34;42.70;;;20.90;;
32826;SDS011;51059;42.058;27.986;2022-12-16T01:32:00;37.97;;;19.37;;
32826;SDS011;51059;42.058;27.986;2022-12-16T01:34:26;42.80;;;19.87;;
32826;SDS011;51059;42.058;27.986;2022-12-16T01:36:51;37.70;;;20.00;;
32826;SDS011;51059;42.058;27.986;2022-12-16T01:39:17;31.23;;;19.30;;
32826;SDS011;51059;42.058;27.986;2022-12-16T01:41:42;35.83;;;18.30;;
32826;SDS011;51059;42.058;27.986;2022-12-16T01:44:18;43.73;;;19.53;;
32826;SDS011;51059;42.058;27.986;2022-12-16T01:46:48;40.83;;;18.40;;
32826;SDS011;51059;42.058;27.986;2022-12-16T01:49:25;36.53;;;18.10;;
32826;SDS011;51059;42.058;27.986;2022-12-16T01:51:59;35.77;;;17.30;;
32826;SDS011;51059;42.058;27.986;2022-12-16T01:54:32;33.63;;;17.27;;
32826;SDS011;51059;42.058;27.986;2022-12-16T01:57:02;37.30;;;16.73;;
32826;SDS011;51059;42.058;27.986;2022-12-16T01:59:30;32.63;;;17.30;;
32826;SDS011;51059;42.058;27.986;2022-12-16T02:01:56;35.57;;;17.23;;
32826;SDS011;51059;42.058;27.986;2022-12-16T02:04:22;39.63;;;17.40;;
32826;SDS011;51059;42.058;27.986;2022-12-16T02:06:47;32.20;;;16.70;;
32826;SDS011;51059;42.058;27.986;2022-12-16T02:09:13;37.00;;;18.23;;
32826;SDS011;51059;42.058;27.986;2022-12-16T02:20:21;32.60;;;16.23;;
32826;SDS011;51059;42.058;27.986;2022-12-16T02:25:36;26.60;;;16.43;;
32826;SDS011;51059;42.058;27.986;2022-12-16T02:28:32;35.13;;;17.57;;
32826;SDS011;51059;42.058;27.986;2022-12-16T02:34:25;28.03;;;16.03;;
32826;SDS011;51059;42.058;27.986;2022-12-16T02:37:09;27.57;;;16.33;;
32826;SDS011;51059;42.058;27.986;2022-12-16T02:39:51;26.63;;;16.53;;
32826;SDS011;51059;42.058;27.986;2022-12-16T02:42:31;33.37;;;18.00;;
32826;SDS011;51059;42.058;27.986;2022-12-16T02:45:04;25.83;;;15.83;;
32826;SDS011;51059;42.058;27.986;2022-12-16T02:47:44;33.93;;;16.60;;
32826;SDS011;51059;42.058;27.986;2022-12-16T02:52:53;36.53;;;15.60;;
32826;SDS011;51059;42.058;27.986;2022-12-16T02:55:19;27.57;;;14.97;;
32826;SDS011;51059;42.058;27.986;2022-12-16T02:57:49;29.20;;;14.87;;
32826;SDS011;51059;42.058;27.986;2022-12-16T03:00:27;30.30;;;14.13;;
32826;SDS011;51059;42.058;27.986;2022-12-16T03:03:18;22.57;;;13.97;;
32826;SDS011;51059;42.058;27.986;2022-12-16T03:05:44;37.57;;;14.83;;
32826;SDS011;51059;42.058;27.986;2022-12-16T03:08:15;23.07;;;14.13;;
32826;SDS011;51059;42.058;27.986;2022-12-16T03:10:47;37.77;;;14.43;;
32826;SDS011;51059;42.058;27.986;2022-12-16T03:13:17;28.23;;;14.03;;
32826;SDS011;51059;42.058;27.986;2022-12-16T03:15:43;21.47;;;13.07;;
32826;SDS011;51059;42.058;27.986;2022-12-16T03:18:10;28.00;;;13.87;;
32826;SDS011;51059;42.058;27.986;2022-12-16T03:20:41;30.03;;;12.93;;
32826;SDS011;51059;42.058;27.986;2022-12-16T03:23:11;30.53;;;12.97;;
32826;SDS011;51059;42.058;27.986;2022-12-16T03:25:40;30.73;;;14.57;;
32826;SDS011;51059;42.058;27.986;2022-12-16T03:31:00;35.10;;;14.80;;
32826;SDS011;51059;42.058;27.986;2022-12-16T03:33:36;32.30;;;14.67;;
32826;SDS011;51059;42.058;27.986;2022-12-16T03:36:05;37.23;;;14.93;;
32826;SDS011;51059;42.058;27.986;2022-12-16T03:38:35;36.57;;;15.83;;
32826;SDS011;51059;42.058;27.986;2022-12-16T03:41:01;30.47;;;15.63;;
32826;SDS011;51059;42.058;27.986;2022-12-16T03:43:27;32.03;;;16.03;;
32826;SDS011;51059;42.058;27.986;2022-12-16T03:45:54;33.97;;;15.73;;
32826;SDS011;51059;42.058;27.986;2022-12-16T03:48:24;34.80;;;15.50;;
32826;SDS011;51059;42.058;27.986;2022-12-16T03:50:50;28.73;;;15.93;;
32826;SDS011;51059;42.058;27.986;2022-12-16T03:53:16;41.63;;;16.13;;
32826;SDS011;51059;42.058;27.986;2022-12-16T03:55:42;30.07;;;16.33;;
32826;SDS011;51059;42.058;27.986;2022-12-16T03:58:08;35.40;;;17.17;;
32826;SDS011;51059;42.058;27.986;2022-12-16T04:00:34;35.23;;;16.93;;
32826;SDS011;51059;42.058;27.986;2022-12-16T04:03:00;33.00;;;18.40;;
32826;SDS011;51059;42.058;27.986;2022-12-16T04:05:25;54.87;;;19.27;;
32826;SDS011;51059;42.058;27.986;2022-12-16T04:07:51;46.20;;;20.03;;
32826;SDS011;51059;42.058;27.986;2022-12-16T04:10:17;46.13;;;21.20;;
32826;SDS011;51059;42.058;27.986;2022-12-16T04:13:02;50.50;;;21.43;;
32826;SDS011;51059;42.058;27.986;2022-12-16T04:15:46;49.03;;;20.50;;
32826;SDS011;51059;42.058;27.986;2022-12-16T04:18:30;41.17;;;20.23;;
32826;SDS011;51059;42.058;27.986;2022-12-16T04:21:14;46.20;;;20.70;;
32826;SDS011;51059;42.058;27.986;2022-12-16T04:23:58;43.90;;;19.80;;
32826;SDS011;51059;42.058;27.986;2022-12-16T04:26:42;43.50;;;19.60;;
32826;SDS011;51059;42.058;27.986;2022-12-16T04:29:26;37.33;;;19.13;;
32826;SDS011;51059;42.058;27.986;2022-12-16T04:31:51;48.00;;;19.87;;
32826;SDS011;51059;42.058;27.986;2022-12-16T04:34:17;47.73;;;20.77;;
32826;SDS011;51059;42.058;27.986;2022-12-16T04:36:59;36.83;;;18.57;;
32826;SDS011;51059;42.058;27.986;2022-12-16T04:39:44;38.03;;;17.50;;
32826;SDS011;51059;42.058;27.986;2022-12-16T04:42:29;37.80;;;18.63;;
32826;SDS011;51059;42.058;27.986;2022-12-16T04:45:13;42.63;;;17.97;;
32826;SDS011;51059;42.058;27.986;2022-12-16T04:47:57;38.13;;;17.73;;
32826;SDS011;51059;42.058;27.986;2022-12-16T04:50:41;37.63;;;17.30;;
32826;SDS011;51059;42.058;27.986;2022-12-16T04:53:26;38.93;;;16.77;;
32826;SDS011;51059;42.058;27.986;2022-12-16T04:56:11;34.63;;;17.07;;
32826;SDS011;51059;42.058;27.986;2022-12-16T04:58:55;35.13;;;16.77;;
32826;SDS011;51059;42.058;27.986;2022-12-16T05:01:53;30.57;;;16.13;;
32826;SDS011;51059;42.058;27.986;2022-12-16T05:04:37;34.60;;;16.60;;
32826;SDS011;51059;42.058;27.986;2022-12-16T05:07:20;26.53;;;15.77;;
32826;SDS011;51059;42.058;27.986;2022-12-16T05:10:05;27.07;;;15.53;;
32826;SDS011;51059;42.058;27.986;2022-12-16T05:12:51;25.60;;;16.60;;
32826;SDS011;51059;42.058;27.986;2022-12-16T05:15:36;27.00;;;15.20;;
32826;SDS011;51059;42.058;27.986;2022-12-16T05:18:20;24.27;;;15.80;;
32826;SDS011;51059;42.058;27.986;2022-12-16T05:21:04;26.37;;;16.00;;
32826;SDS011;51059;42.058;27.986;2022-12-16T05:23:48;22.33;;;14.70;;
32826;SDS011;51059;42.058;27.986;2022-12-16T05:26:32;23.43;;;14.73;;
32826;SDS011;51059;42.058;27.986;2022-12-16T05:29:16;36.03;;;16.47;;
32826;SDS011;51059;42.058;27.986;2022-12-16T05:32:00;36.57;;;16.50;;
32826;SDS011;51059;42.058;27.986;2022-12-16T05:34:44;41.23;;;16.70;;
32826;SDS011;51059;42.058;27.986;2022-12-16T05:37:28;27.17;;;15.93;;
32826;SDS011;51059;42.058;27.986;2022-12-16T05:40:12;27.60;;;16.10;;
32826;SDS011;51059;42.058;27.986;2022-12-16T05:42:56;25.53;;;15.67;;
32826;SDS011;51059;42.058;27.986;2022-12-16T05:45:40;27.67;;;15.60;;
32826;SDS011;51059;42.058;27.986;2022-12-16T05:48:24;27.53;;;15.37;;
32826;SDS011;51059;42.058;27.986;2022-12-16T05:51:08;23.70;;;15.97;;
32826;SDS011;51059;42.058;27.986;2022-12-16T05:53:52;29.47;;;16.50;;
32826;SDS011;51059;42.058;27.986;2022-12-16T05:56:36;24.63;;;15.67;;
32826;SDS011;51059;42.058;27.986;2022-12-16T05:59:20;29.13;;;15.97;;
32826;SDS011;51059;42.058;27.986;2022-12-16T06:02:04;24.83;;;15.80;;
32826;SDS011;51059;42.058;27.986;2022-12-16T06:04:48;26.20;;;16.13;;
32826;SDS011;51059;42.058;27.986;2022-12-16T06:07:32;28.47;;;16.80;;
32826;SDS011;51059;42.058;27.986;2022-12-16T06:10:16;26.27;;;16.30;;
32826;SDS011;51059;42.058;27.986;2022-12-16T06:13:00;34.80;;;17.33;;
32826;SDS011;51059;42.058;27.986;2022-12-16T06:15:44;35.40;;;19.43;;
32826;SDS011;51059;42.058;27.986;2022-12-16T06:18:28;40.57;;;20.37;;
32826;SDS011;51059;42.058;27.986;2022-12-16T06:21:13;58.93;;;24.00;;
32826;SDS011;51059;42.058;27.986;2022-12-16T06:23:57;74.10;;;27.60;;
32826;SDS011;51059;42.058;27.986;2022-12-16T06:26:41;57.00;;;23.73;;
32826;SDS011;51059;42.058;27.986;2022-12-16T06:29:25;51.87;;;22.40;;
32826;SDS011;51059;42.058;27.986;2022-12-16T06:32:08;43.67;;;21.80;;
32826;SDS011;51059;42.058;27.986;2022-12-16T06:34:52;35.87;;;20.53;;
32826;SDS011;51059;42.058;27.986;2022-12-16T06:37:36;41.70;;;22.17;;
32826;SDS011;51059;42.058;27.986;2022-12-16T06:40:20;41.77;;;21.63;;
32826;SDS011;51059;42.058;27.986;2022-12-16T06:43:04;41.83;;;20.57;;
32826;SDS011;51059;42.058;27.986;2022-12-16T06:45:48;41.33;;;20.77;;
32826;SDS011;51059;42.058;27.986;2022-12-16T06:48:32;42.00;;;21.83;;
32826;SDS011;51059;42.058;27.986;2022-12-16T06:51:16;39.60;;;21.60;;
32826;SDS011;51059;42.058;27.986;2022-12-16T06:54:00;35.20;;;20.80;;
32826;SDS011;51059;42.058;27.986;2022-12-16T06:56:44;44.13;;;23.50;;
32826;SDS011;51059;42.058;27.986;2022-12-16T06:59:28;49.80;;;25.17;;
32826;SDS011;51059;42.058;27.986;2022-12-16T07:02:12;45.63;;;24.60;;
32826;SDS011;51059;42.058;27.986;2022-12-16T07:04:55;41.23;;;22.83;;
32826;SDS011;51059;42.058;27.986;2022-12-16T07:07:45;40.17;;;23.57;;
32826;SDS011;51059;42.058;27.986;2022-12-16T07:10:32;43.20;;;25.37;;
32826;SDS011;51059;42.058;27.986;2022-12-16T07:13:16;40.70;;;24.40;;
32826;SDS011;51059;42.058;27.986;2022-12-16T07:16:00;41.57;;;24.43;;
32826;SDS011;51059;42.058;27.986;2022-12-16T07:18:44;43.17;;;26.27;;
32826;SDS011;51059;42.058;27.986;2022-12-16T07:21:28;48.77;;;27.10;;
32826;SDS011;51059;42.058;27.986;2022-12-16T07:24:12;46.17;;;25.40;;
32826;SDS011;51059;42.058;27.986;2022-12-16T07:26:56;50.50;;;27.23;;
32826;SDS011;51059;42.058;27.986;2022-12-16T07:29:40;45.00;;;25.70;;
32826;SDS011;51059;42.058;27.986;2022-12-16T07:32:24;47.30;;;25.97;;
32826;SDS011;51059;42.058;27.986;2022-12-16T07:35:08;51.87;;;26.80;;
32826;SDS011;51059;42.058;27.986;2022-12-16T07:37:52;49.17;;;25.57;;
32826;SDS011;51059;42.058;27.986;2022-12-16T07:40:36;47.37;;;25.80;;
32826;SDS011;51059;42.058;27.986;2022-12-16T07:43:19;43.27;;;24.40;;
32826;SDS011;51059;42.058;27.986;2022-12-16T07:46:03;45.03;;;24.37;;
32826;SDS011;51059;42.058;27.986;2022-12-16T07:48:47;44.13;;;24.67;;
32826;SDS011;51059;42.058;27.986;2022-12-16T07:51:31;42.57;;;25.07;;
32826;SDS011;51059;42.058;27.986;2022-12-16T07:54:15;41.97;;;23.23;;
32826;SDS011;51059;42.058;27.986;2022-12-16T07:56:59;46.53;;;23.90;;
32826;SDS011;51059;42.058;27.986;2022-12-16T07:59:43;39.37;;;23.23;;
32826;SDS011;51059;42.058;27.986;2022-12-16T08:02:27;42.53;;;23.33;;
32826;SDS011;51059;42.058;27.986;2022-12-16T08:05:11;43.53;;;21.87;;
32826;SDS011;51059;42.058;27.986;2022-12-16T08:07:54;42.37;;;21.93;;
32826;SDS011;51059;42.058;27.986;2022-12-16T08:10:39;40.33;;;22.10;;
32826;SDS011;51059;42.058;27.986;2022-12-16T08:13:22;39.53;;;21.47;;
32826;SDS011;51059;42.058;27.986;2022-12-16T08:16:06;41.43;;;21.20;;
32826;SDS011;51059;42.058;27.986;2022-12-16T08:18:50;36.33;;;21.27;;
32826;SDS011;51059;42.058;27.986;2022-12-16T08:21:34;38.93;;;20.03;;
32826;SDS011;51059;42.058;27.986;2022-12-16T08:24:18;32.17;;;18.87;;
32826;SDS011;51059;42.058;27.986;2022-12-16T08:27:02;33.43;;;19.77;;
32826;SDS011;51059;42.058;27.986;2022-12-16T08:29:46;37.93;;;20.27;;
32826;SDS011;51059;42.058;27.986;2022-12-16T08:32:30;35.17;;;19.27;;
32826;SDS011;51059;42.058;27.986;2022-12-16T08:35:14;28.23;;;17.67;;
32826;SDS011;51059;42.058;27.986;2022-12-16T08:37:57;29.90;;;18.50;;
32826;SDS011;51059;42.058;27.986;2022-12-16T08:40:43;31.67;;;17.43;;
32826;SDS011;51059;42.058;27.986;2022-12-16T08:43:31;26.93;;;17.00;;
32826;SDS011;51059;42.058;27.986;2022-12-16T08:46:17;31.27;;;16.87;;
32826;SDS011;51059;42.058;27.986;2022-12-16T08:49:01;27.40;;;16.47;;
32826;SDS011;51059;42.058;27.986;2022-12-16T08:51:45;29.87;;;16.83;;
32826;SDS011;51059;42.058;27.986;2022-12-16T08:54:28;33.23;;;17.17;;
32826;SDS011;51059;42.058;27.986;2022-12-16T08:57:12;27.47;;;16.80;;
32826;SDS011;51059;42.058;27.986;2022-12-16T08:59:56;34.37;;;18.33;;
32826;SDS011;51059;42.058;27.986;2022-12-16T09:02:40;31.43;;;17.83;;
32826;SDS011;51059;42.058;27.986;2022-12-16T09:05:24;29.40;;;18.33;;
32826;SDS011;51059;42.058;27.986;2022-12-16T09:08:08;39.17;;;19.50;;
32826;SDS011;51059;42.058;27.986;2022-12-16T09:10:53;35.77;;;18.70;;
32826;SDS011;51059;42.058;27.986;2022-12-16T09:13:36;40.00;;;19.00;;
32826;SDS011;51059;42.058;27.986;2022-12-16T09:16:20;35.83;;;17.60;;
32826;SDS011;51059;42.058;27.986;2022-12-16T09:19:04;39.37;;;18.90;;
32826;SDS011;51059;42.058;27.986;2022-12-16T09:21:48;36.43;;;18.23;;
32826;SDS011;51059;42.058;27.986;2022-12-16T09:24:32;35.63;;;19.10;;
32826;SDS011;51059;42.058;27.986;2022-12-16T09:27:16;33.40;;;16.90;;
32826;SDS011;51059;42.058;27.986;2022-12-16T09:30:00;34.53;;;17.90;;
32826;SDS011;51059;42.058;27.986;2022-12-16T09:32:44;39.13;;;17.03;;
32826;SDS011;51059;42.058;27.986;2022-12-16T09:35:29;28.47;;;18.07;;
32826;SDS011;51059;42.058;27.986;2022-12-16T09:38:13;34.50;;;17.63;;
32826;SDS011;51059;42.058;27.986;2022-12-16T09:40:57;34.77;;;17.10;;
32826;SDS011;51059;42.058;27.986;2022-12-16T09:44:07;36.67;;;17.97;;
32826;SDS011;51059;42.058;27.986;2022-12-16T09:50:12;32.07;;;17.20;;
32826;SDS011;51059;42.058;27.986;2022-12-16T09:53:02;29.13;;;16.80;;
32826;SDS011;51059;42.058;27.986;2022-12-16T09:55:47;32.07;;;16.47;;
32826;SDS011;51059;42.058;27.986;2022-12-16T09:58:42;32.13;;;16.93;;
32826;SDS011;51059;42.058;27.986;2022-12-16T10:01:34;34.00;;;16.17;;
32826;SDS011;51059;42.058;27.986;2022-12-16T10:04:20;34.93;;;16.10;;
32826;SDS011;51059;42.058;27.986;2022-12-16T10:07:04;25.03;;;15.43;;
32826;SDS011;51059;42.058;27.986;2022-12-16T10:21:26;30.53;;;15.83;;
32826;SDS011;51059;42.058;27.986;2022-12-16T10:24:20;33.03;;;16.10;;
32826;SDS011;51059;42.058;27.986;2022-12-16T10:29:57;32.60;;;15.57;;
32826;SDS011;51059;42.058;27.986;2022-12-16T10:32:43;26.23;;;15.13;;
32826;SDS011;51059;42.058;27.986;2022-12-16T10:35:34;28.37;;;14.87;;
32826;SDS011;51059;42.058;27.986;2022-12-16T10:38:29;33.60;;;15.80;;
32826;SDS011;51059;42.058;27.986;2022-12-16T10:41:17;33.03;;;15.97;;
32826;SDS011;51059;42.058;27.986;2022-12-16T10:44:02;34.17;;;14.43;;
32826;SDS011;51059;42.058;27.986;2022-12-16T10:46:52;29.93;;;14.87;;
32826;SDS011;51059;42.058;27.986;2022-12-16T10:49:36;27.80;;;14.90;;
32826;SDS011;51059;42.058;27.986;2022-12-16T10:52:20;28.03;;;14.97;;
32826;SDS011;51059;42.058;27.986;2022-12-16T10:58:19;24.67;;;12.90;;
32826;SDS011;51059;42.058;27.986;2022-12-16T11:01:25;23.40;;;12.20;;
32826;SDS011;51059;42.058;27.986;2022-12-16T11:10:37;14.73;;;8.13;;
32826;SDS011;51059;42.058;27.986;2022-12-16T11:13:26;15.20;;;8.57;;
32826;SDS011;51059;42.058;27.986;2022-12-16T11:16:19;20.47;;;9.33;;
32826;SDS011;51059;42.058;27.986;2022-12-16T11:19:17;18.40;;;8.50;;
32826;SDS011;51059;42.058;27.986;2022-12-16T11:22:25;14.43;;;8.20;;
32826;SDS011;51059;42.058;27.986;2022-12-16T11:28:14;16.13;;;8.47;;
32826;SDS011;51059;42.058;27.986;2022-12-16T11:31:00;16.73;;;8.47;;
32826;SDS011;51059;42.058;27.986;2022-12-16T11:33:49;16.67;;;8.37;;
32826;SDS011;51059;42.058;27.986;2022-12-16T11:36:35;13.33;;;7.53;;
32826;SDS011;51059;42.058;27.986;2022-12-16T11:39:21;8.70;;;7.23;;
32826;SDS011;51059;42.058;27.986;2022-12-16T11:42:18;12.80;;;7.93;;
32826;SDS011;51059;42.058;27.986;2022-12-16T11:45:04;11.27;;;7.33;;
32826;SDS011;51059;42.058;27.986;2022-12-16T11:51:10;15.87;;;8.37;;
32826;SDS011;51059;42.058;27.986;2022-12-16T11:54:01;14.33;;;7.97;;
32826;SDS011;51059;42.058;27.986;2022-12-16T11:56:52;14.80;;;7.93;;
32826;SDS011;51059;42.058;27.986;2022-12-16T11:59:39;16.53;;;7.70;;
32826;SDS011;51059;42.058;27.986;2022-12-16T12:02:42;13.63;;;7.77;;
32826;SDS011;51059;42.058;27.986;2022-12-16T12:05:42;15.03;;;7.90;;
32826;SDS011;51059;42.058;27.986;2022-12-16T12:14:42;13.40;;;7.77;;
32826;SDS011;51059;42.058;27.986;2022-12-16T12:23:22;14.57;;;7.53;;
32826;SDS011;51059;42.058;27.986;2022-12-16T12:26:17;13.40;;;8.03;;
32826;SDS011;51059;42.058;27.986;2022-12-16T12:39:23;11.70;;;7.43;;
32826;SDS011;51059;42.058;27.986;2022-12-16T12:48:19;18.70;;;8.10;;
32826;SDS011;51059;42.058;27.986;2022-12-16T12:57:22;13.37;;;7.33;;
32826;SDS011;51059;42.058;27.986;2022-12-16T13:00:20;14.10;;;7.07;;
32826;SDS011;51059;42.058;27.986;2022-12-16T13:06:43;18.10;;;7.67;;
32826;SDS011;51059;42.058;27.986;2022-12-16T13:09:31;12.93;;;6.83;;
32826;SDS011;51059;42.058;27.986;2022-12-16T13:15:17;15.87;;;7.13;;
32826;SDS011;51059;42.058;27.986;2022-12-16T13:18:29;12.63;;;7.00;;
32826;SDS011;51059;42.058;27.986;2022-12-16T13:24:36;18.67;;;7.03;;
32826;SDS011;51059;42.058;27.986;2022-12-16T13:27:45;13.80;;;6.87;;
32826;SDS011;51059;42.058;27.986;2022-12-16T13:30:32;13.70;;;7.03;;
32826;SDS011;51059;42.058;27.986;2022-12-16T13:36:03;15.27;;;7.07;;
32826;SDS011;51059;42.058;27.986;2022-12-16T13:38:50;16.93;;;6.87;;
32826;SDS011;51059;42.058;27.986;2022-12-16T13:50:35;10.67;;;6.30;;
32826;SDS011;51059;42.058;27.986;2022-12-16T13:53:21;13.30;;;6.83;;
32826;SDS011;51059;42.058;27.986;2022-12-16T13:56:05;13.67;;;6.03;;
32826;SDS011;51059;42.058;27.986;2022-12-16T13:58:57;19.20;;;6.80;;
32826;SDS011;51059;42.058;27.986;2022-12-16T14:04:49;18.10;;;7.53;;
32826;SDS011;51059;42.058;27.986;2022-12-16T14:07:36;15.57;;;8.53;;
32826;SDS011;51059;42.058;27.986;2022-12-16T14:10:27;24.73;;;8.77;;
32826;SDS011;51059;42.058;27.986;2022-12-16T14:13:16;16.77;;;8.37;;
32826;SDS011;51059;42.058;27.986;2022-12-16T14:21:48;16.83;;;8.37;;
32826;SDS011;51059;42.058;27.986;2022-12-16T14:24:44;15.73;;;8.57;;
32826;SDS011;51059;42.058;27.986;2022-12-16T14:27:29;18.23;;;8.53;;
32826;SDS011;51059;42.058;27.986;2022-12-16T14:30:20;22.37;;;8.30;;
32826;SDS011;51059;42.058;27.986;2022-12-16T14:33:25;15.20;;;7.73;;
32826;SDS011;51059;42.058;27.986;2022-12-16T14:36:43;14.37;;;7.13;;
32826;SDS011;51059;42.058;27.986;2022-12-16T14:39:23;16.00;;;7.63;;
32826;SDS011;51059;42.058;27.986;2022-12-16T14:42:22;17.03;;;7.90;;
32826;SDS011;51059;42.058;27.986;2022-12-16T14:45:32;13.40;;;7.00;;
32826;SDS011;51059;42.058;27.986;2022-12-16T14:48:24;10.97;;;7.30;;
32826;SDS011;51059;42.058;27.986;2022-12-16T14:51:16;16.00;;;7.80;;
32826;SDS011;51059;42.058;27.986;2022-12-16T14:54:19;13.80;;;7.17;;
32826;SDS011;51059;42.058;27.986;2022-12-16T14:57:14;16.57;;;6.93;;
32826;SDS011;51059;42.058;27.986;2022-12-16T15:02:50;13.23;;;6.50;;
32826;SDS011;51059;42.058;27.986;2022-12-16T15:05:37;10.43;;;6.67;;
32826;SDS011;51059;42.058;27.986;2022-12-16T15:08:21;13.57;;;6.70;;
32826;SDS011;51059;42.058;27.986;2022-12-16T15:11:07;12.57;;;6.90;;
32826;SDS011;51059;42.058;27.986;2022-12-16T15:13:53;14.80;;;6.63;;
32826;SDS011;51059;42.058;27.986;2022-12-16T15:16:40;14.53;;;6.47;;
32826;SDS011;51059;42.058;27.986;2022-12-16T15:19:25;14.17;;;6.97;;
32826;SDS011;51059;42.058;27.986;2022-12-16T15:22:12;13.30;;;6.43;;
32826;SDS011;51059;42.058;27.986;2022-12-16T15:24:57;18.47;;;7.23;;
32826;SDS011;51059;42.058;27.986;2022-12-16T15:27:42;13.13;;;6.73;;
32826;SDS011;51059;42.058;27.986;2022-12-16T15:30:36;16.80;;;6.40;;
32826;SDS011;51059;42.058;27.986;2022-12-16T15:33:24;17.20;;;7.17;;
32826;SDS011;51059;42.058;27.986;2022-12-16T15:36:14;15.93;;;7.10;;
32826;SDS011;51059;42.058;27.986;2022-12-16T15:39:09;15.33;;;7.00;;
32826;SDS011;51059;42.058;27.986;2022-12-16T15:42:16;13.77;;;6.83;;
32826;SDS011;51059;42.058;27.986;2022-12-16T15:45:03;16.80;;;6.10;;
32826;SDS011;51059;42.058;27.986;2022-12-16T15:47:48;14.23;;;6.60;;
32826;SDS011;51059;42.058;27.986;2022-12-16T15:50:32;14.60;;;6.93;;
32826;SDS011;51059;42.058;27.986;2022-12-16T15:56:23;14.00;;;7.53;;
32826;SDS011;51059;42.058;27.986;2022-12-16T16:02:15;15.50;;;6.43;;
32826;SDS011;51059;42.058;27.986;2022-12-16T16:07:55;15.93;;;5.60;;
32826;SDS011;51059;42.058;27.986;2022-12-16T16:10:40;12.10;;;5.57;;
32826;SDS011;51059;42.058;27.986;2022-12-16T16:13:27;15.43;;;5.60;;
32826;SDS011;51059;42.058;27.986;2022-12-16T16:16:11;17.00;;;6.47;;
32826;SDS011;51059;42.058;27.986;2022-12-16T16:18:56;14.80;;;6.43;;
32826;SDS011;51059;42.058;27.986;2022-12-16T16:21:39;13.93;;;7.13;;
32826;SDS011;51059;42.058;27.986;2022-12-16T16:24:23;16.07;;;6.67;;
32826;SDS011;51059;42.058;27.986;2022-12-16T16:27:08;16.60;;;7.93;;
32826;SDS011;51059;42.058;27.986;2022-12-16T16:29:55;15.20;;;7.43;;
32826;SDS011;51059;42.058;27.986;2022-12-16T16:32:39;17.63;;;7.47;;
32826;SDS011;51059;42.058;27.986;2022-12-16T16:35:23;21.10;;;7.37;;
32826;SDS011;51059;42.058;27.986;2022-12-16T16:38:10;23.13;;;6.23;;
32826;SDS011;51059;42.058;27.986;2022-12-16T16:40:54;18.63;;;6.50;;
32826;SDS011;51059;42.058;27.986;2022-12-16T16:43:38;17.07;;;6.10;;
32826;SDS011;51059;42.058;27.986;2022-12-16T16:46:33;17.83;;;6.20;;
32826;SDS011;51059;42.058;27.986;2022-12-16T16:52:09;15.20;;;5.60;;
32826;SDS011;51059;42.058;27.986;2022-12-16T16:54:53;16.20;;;6.10;;
32826;SDS011;51059;42.058;27.986;2022-12-16T16:57:37;16.27;;;6.23;;
32826;SDS011;51059;42.058;27.986;2022-12-16T17:00:21;16.23;;;6.10;;
32826;SDS011;51059;42.058;27.986;2022-12-16T17:03:05;18.40;;;6.10;;
32826;SDS011;51059;42.058;27.986;2022-12-16T17:05:49;12.13;;;5.97;;
32826;SDS011;51059;42.058;27.986;2022-12-16T17:08:33;20.37;;;6.33;;
32826;SDS011;51059;42.058;27.986;2022-12-16T17:11:18;13.63;;;5.90;;
32826;SDS011;51059;42.058;27.986;2022-12-16T17:14:04;12.40;;;6.40;;
32826;SDS011;51059;42.058;27.986;2022-12-16T17:16:48;13.30;;;6.30;;
32826;SDS011;51059;42.058;27.986;2022-12-16T17:19:32;14.90;;;7.00;;
32826;SDS011;51059;42.058;27.986;2022-12-16T17:22:16;13.00;;;6.30;;
32826;SDS011;51059;42.058;27.986;2022-12-16T17:25:00;15.07;;;6.67;;
32826;SDS011;51059;42.058;27.986;2022-12-16T17:27:44;21.40;;;8.30;;
32826;SDS011;51059;42.058;27.986;2022-12-16T17:30:28;18.53;;;7.47;;
32826;SDS011;51059;42.058;27.986;2022-12-16T17:33:13;15.13;;;7.70;;
32826;SDS011;51059;42.058;27.986;2022-12-16T17:35:57;20.77;;;7.47;;
32826;SDS011;51059;42.058;27.986;2022-12-16T17:38:42;16.67;;;7.17;;
32826;SDS011;51059;42.058;27.986;2022-12-16T17:41:30;13.97;;;7.33;;
32826;SDS011;51059;42.058;27.986;2022-12-16T17:44:15;15.63;;;7.57;;
32826;SDS011;51059;42.058;27.986;2022-12-16T17:47:00;14.73;;;7.27;;
32826;SDS011;51059;42.058;27.986;2022-12-16T17:49:44;12.73;;;7.30;;
32826;SDS011;51059;42.058;27.986;2022-12-16T17:52:28;13.40;;;7.57;;